Time;durP1;ratioP1;P1;durP2;ratioP2;P2;SDS_P1;SDS_P2;PMS_P1;PMS_P2;Temp;Humidity;BMP_temperature;BMP_pressure;BME280_temperature;BME280_humidity;BME280_pressure;Samples;Min_cycle;Max_cycle;Signal;HPM_P1;HPM_P2
2023/09/20 00:01:14;;;;;;;0.38;0.38;;;;;;;;;;7388744;19;20424;-91
2023/09/20 00:03:42;;;;;;;0.30;0.30;;;;;;;;;;7388263;19;20416;-90
2023/09/20 00:06:18;;;;;;;0.90;0.70;;;;;;;;;;7388786;19;20687;-90
2023/09/20 00:08:50;;;;;;;0.50;0.50;;;;;;;;;;7394593;19;20354;-90
2023/09/20 00:11:20;;;;;;;0.40;0.40;;;;;;;;;;7389381;19;20428;-90
2023/09/20 00:13:52;;;;;;;0.35;0.35;;;;;;;;;;7389651;19;20377;-90
2023/09/20 00:16:19;;;;;;;0.30;0.30;;;;;;;;;;7388408;19;20357;-90
2023/09/20 00:18:51;;;;;;;0.47;0.47;;;;;;;;;;7390740;19;20366;-90
2023/09/20 00:21:26;;;;;;;0.80;0.52;;;;;;;;;;7387365;19;20356;-89
2023/09/20 00:23:58;;;;;;;0.52;0.52;;;;;;;;;;7387578;19;20332;-90
2023/09/20 00:26:32;;;;;;;0.45;0.45;;;;;;;;;;7383885;19;20893;-91
2023/09/20 00:31:51;;;;;;;0.30;0.30;;;;;;;;;;7335923;19;20352;-92
2023/09/20 00:34:17;;;;;;;0.40;0.40;;;;;;;;;;7384228;19;20356;-89
2023/09/20 00:36:44;;;;;;;2.60;0.50;;;;;;;;;;7384347;19;20337;-91
2023/09/20 00:39:11;;;;;;;0.40;0.40;;;;;;;;;;7387136;19;20402;-92
2023/09/20 00:41:38;;;;;;;0.40;0.40;;;;;;;;;;7385179;19;20373;-91
2023/09/20 00:44:07;;;;;;;0.40;0.40;;;;;;;;;;7387675;19;20361;-90
2023/09/20 00:46:38;;;;;;;0.50;0.50;;;;;;;;;;7389992;19;20349;-90
2023/09/20 00:49:06;;;;;;;1.90;0.50;;;;;;;;;;7389675;19;20365;-90
2023/09/20 00:51:33;;;;;;;0.80;0.60;;;;;;;;;;7393111;19;20428;-91
2023/09/20 00:54:04;;;;;;;0.35;0.35;;;;;;;;;;7388353;19;20357;-90
2023/09/20 00:56:31;;;;;;;0.97;0.40;;;;;;;;;;7388631;19;20433;-91
2023/09/20 00:59:04;;;;;;;0.70;0.70;;;;;;;;;;7393905;19;20352;-90
2023/09/20 01:01:33;;;;;;;0.40;0.40;;;;;;;;;;7395573;19;20328;-90
2023/09/20 01:04:02;;;;;;;0.40;0.40;;;;;;;;;;7395711;19;20360;-89
2023/09/20 01:06:29;;;;;;;0.50;0.50;;;;;;;;;;7395861;19;20336;-90
2023/09/20 01:08:58;;;;;;;0.30;0.30;;;;;;;;;;7398441;19;20356;-90
2023/09/20 01:11:32;;;;;;;0.40;0.40;;;;;;;;;;7395774;19;21024;-90
2023/09/20 01:13:59;;;;;;;0.40;0.40;;;;;;;;;;7400168;19;20365;-90
2023/09/20 01:16:27;;;;;;;0.50;0.50;;;;;;;;;;7400898;19;20896;-90
2023/09/20 01:18:54;;;;;;;0.40;0.40;;;;;;;;;;7402622;19;20353;-90
2023/09/20 01:21:21;;;;;;;0.50;0.50;;;;;;;;;;7398369;19;21210;-91
2023/09/20 01:23:49;;;;;;;0.32;0.32;;;;;;;;;;7397983;19;20333;-90
2023/09/20 01:26:16;;;;;;;0.83;0.83;;;;;;;;;;7400447;19;20348;-89
2023/09/20 01:28:43;;;;;;;1.90;0.40;;;;;;;;;;7400721;19;20364;-90
2023/09/20 01:31:10;;;;;;;0.40;0.40;;;;;;;;;;7399745;19;20356;-90
2023/09/20 01:33:42;;;;;;;0.50;0.50;;;;;;;;;;7400419;19;20353;-90
2023/09/20 01:36:10;;;;;;;0.50;0.50;;;;;;;;;;7398996;19;20356;-90
2023/09/20 01:38:42;;;;;;;0.50;0.50;;;;;;;;;;7401070;19;20705;-90
2023/09/20 01:41:14;;;;;;;0.25;0.25;;;;;;;;;;7398118;19;20486;-91
2023/09/20 01:43:46;;;;;;;0.30;0.30;;;;;;;;;;7400074;19;20438;-90
2023/09/20 01:46:18;;;;;;;0.60;0.60;;;;;;;;;;7403209;19;20320;-90
2023/09/20 01:59:30;;;;;;;0.40;0.40;;;;;;;;;;7342285;19;20435;-90
2023/09/20 02:01:57;;;;;;;0.50;0.50;;;;;;;;;;7392476;19;20349;-88
2023/09/20 02:04:24;;;;;;;0.40;0.40;;;;;;;;;;7396983;19;20384;-90
2023/09/20 02:06:51;;;;;;;0.30;0.30;;;;;;;;;;7395838;19;20394;-87
2023/09/20 02:09:18;;;;;;;0.40;0.40;;;;;;;;;;7395412;19;20352;-89
2023/09/20 02:11:45;;;;;;;1.27;0.68;;;;;;;;;;7391463;19;20432;-90
2023/09/20 02:14:11;;;;;;;0.33;0.33;;;;;;;;;;7393327;19;20371;-90
2023/09/20 02:16:38;;;;;;;0.40;0.40;;;;;;;;;;7394021;19;20357;-89
2023/09/20 02:19:05;;;;;;;0.70;0.57;;;;;;;;;;7395878;19;20373;-90
2023/09/20 02:21:31;;;;;;;0.70;0.70;;;;;;;;;;7392335;19;20361;-90
2023/09/20 02:23:58;;;;;;;0.50;0.50;;;;;;;;;;7395851;19;20353;-90
2023/09/20 02:26:25;;;;;;;0.50;0.50;;;;;;;;;;7392289;19;20360;-89
2023/09/20 02:28:51;;;;;;;0.40;0.40;;;;;;;;;;7393300;19;20359;-89
2023/09/20 02:31:18;;;;;;;0.50;0.50;;;;;;;;;;7391382;19;20341;-89
2023/09/20 02:33:45;;;;;;;0.60;0.60;;;;;;;;;;7391945;19;20344;-90
2023/09/20 02:36:11;;;;;;;0.35;0.35;;;;;;;;;;7393923;19;20413;-90
2023/09/20 02:38:38;;;;;;;0.30;0.30;;;;;;;;;;7394055;19;20356;-90
2023/09/20 02:41:05;;;;;;;0.60;0.60;;;;;;;;;;7392046;19;20922;-90
2023/09/20 02:43:32;;;;;;;0.32;0.32;;;;;;;;;;7397972;19;20765;-88
2023/09/20 02:45:59;;;;;;;0.63;0.63;;;;;;;;;;7399474;19;20344;-89
2023/09/20 02:48:26;;;;;;;0.25;0.25;;;;;;;;;;7404782;19;20364;-90
2023/09/20 02:50:53;;;;;;;0.40;0.40;;;;;;;;;;7391250;19;20368;-89
2023/09/20 02:53:19;;;;;;;0.57;0.57;;;;;;;;;;7392908;19;20360;-92
2023/09/20 02:55:50;;;;;;;0.40;0.40;;;;;;;;;;7390862;19;20598;-89
2023/09/20 02:58:19;;;;;;;1.90;0.50;;;;;;;;;;7393437;19;20360;-89
2023/09/20 03:00:47;;;;;;;0.50;0.50;;;;;;;;;;7389556;19;20715;-90
2023/09/20 03:03:15;;;;;;;0.40;0.40;;;;;;;;;;7391238;19;20446;-90
2023/09/20 03:05:47;;;;;;;0.60;0.60;;;;;;;;;;7393678;19;20399;-89
2023/09/20 03:08:17;;;;;;;1.02;0.80;;;;;;;;;;7402972;19;20464;-87
2023/09/20 03:10:44;;;;;;;0.73;0.73;;;;;;;;;;7422732;19;20344;-88
2023/09/20 03:13:16;;;;;;;0.50;0.50;;;;;;;;;;7419743;19;21003;-87
2023/09/20 03:15:44;;;;;;;0.30;0.30;;;;;;;;;;7421385;19;20345;-87
2023/09/20 03:18:14;;;;;;;0.60;0.60;;;;;;;;;;7400614;19;20401;-91
2023/09/20 03:20:44;;;;;;;0.63;0.63;;;;;;;;;;7389580;19;20344;-90
2023/09/20 03:23:12;;;;;;;0.52;0.52;;;;;;;;;;7390410;19;20882;-90
2023/09/20 03:25:38;;;;;;;0.40;0.40;;;;;;;;;;7394150;19;20357;-91
2023/09/20 03:28:10;;;;;;;0.68;0.57;;;;;;;;;;7395324;19;20342;-90
2023/09/20 03:30:42;;;;;;;1.08;0.47;;;;;;;;;;7391906;19;20879;-91
2023/09/20 03:33:17;;;;;;;0.47;0.47;;;;;;;;;;7393190;19;20359;-90
2023/09/20 03:35:49;;;;;;;0.40;0.40;;;;;;;;;;7395015;19;20328;-90
2023/09/20 03:38:19;;;;;;;0.30;0.30;;;;;;;;;;7392469;19;20337;-88
2023/09/20 03:40:46;;;;;;;0.50;0.50;;;;;;;;;;7390899;19;20717;-89
2023/09/20 03:43:15;;;;;;;0.60;0.60;;;;;;;;;;7392037;19;20368;-90
2023/09/20 03:45:45;;;;;;;0.70;0.70;;;;;;;;;;7392023;19;20488;-90
2023/09/20 03:48:12;;;;;;;3.30;0.70;;;;;;;;;;7394570;19;20363;-89
2023/09/20 03:50:43;;;;;;;0.50;0.50;;;;;;;;;;7391492;19;20351;-90
2023/09/20 03:53:13;;;;;;;0.50;0.50;;;;;;;;;;7393448;19;20353;-92
2023/09/20 03:55:45;;;;;;;0.65;0.65;;;;;;;;;;7390356;19;20481;-89
2023/09/20 03:58:12;;;;;;;0.47;0.47;;;;;;;;;;7392522;19;20372;-88
2023/09/20 04:00:38;;;;;;;0.30;0.30;;;;;;;;;;7386789;19;20339;-88
2023/09/20 04:03:12;;;;;;;0.53;0.53;;;;;;;;;;7388015;19;20342;-89
2023/09/20 04:05:46;;;;;;;0.57;0.57;;;;;;;;;;7387990;19;20361;-89
2023/09/20 04:08:19;;;;;;;0.50;0.50;;;;;;;;;;7389555;19;20877;-89
2023/09/20 04:10:51;;;;;;;0.40;0.40;;;;;;;;;;7386778;19;20368;-89
2023/09/20 04:13:24;;;;;;;0.40;0.40;;;;;;;;;;7386880;19;20372;-88
2023/09/20 04:15:51;;;;;;;0.60;0.60;;;;;;;;;;7388322;19;20364;-89
2023/09/20 04:18:17;;;;;;;0.63;0.63;;;;;;;;;;7384494;19;20347;-89
2023/09/20 04:20:48;;;;;;;0.30;0.30;;;;;;;;;;7393058;19;20382;-89
2023/09/20 04:23:19;;;;;;;0.30;0.30;;;;;;;;;;7395170;19;20360;-86
2023/09/20 04:25:46;;;;;;;0.40;0.40;;;;;;;;;;7399890;19;20337;-88
2023/09/20 04:28:12;;;;;;;0.85;0.85;;;;;;;;;;7399851;19;20423;-88
2023/09/20 04:30:40;;;;;;;0.65;0.65;;;;;;;;;;7394121;19;20352;-88
2023/09/20 04:33:10;;;;;;;1.30;0.80;;;;;;;;;;7394938;19;20436;-88
2023/09/20 04:35:37;;;;;;;0.60;0.60;;;;;;;;;;7401289;19;20348;-86
2023/09/20 04:38:09;;;;;;;0.40;0.40;;;;;;;;;;7402108;19;20323;-89
2023/09/20 04:40:42;;;;;;;0.60;0.40;;;;;;;;;;7401869;19;20404;-89
2023/09/20 04:43:09;;;;;;;0.65;0.63;;;;;;;;;;7399977;19;20367;-88
2023/09/20 04:45:35;;;;;;;0.70;0.70;;;;;;;;;;7402618;19;20368;-88
2023/09/20 04:48:05;;;;;;;0.40;0.40;;;;;;;;;;7396431;19;20465;-88
2023/09/20 04:50:34;;;;;;;0.35;0.35;;;;;;;;;;7393987;19;20344;-88
2023/09/20 04:53:06;;;;;;;0.88;0.68;;;;;;;;;;7396051;19;20354;-88
2023/09/20 04:55:38;;;;;;;0.50;0.50;;;;;;;;;;7395543;19;20356;-88
2023/09/20 04:58:06;;;;;;;0.50;0.50;;;;;;;;;;7396590;19;20347;-88
2023/09/20 05:00:37;;;;;;;0.30;0.30;;;;;;;;;;7396472;19;20341;-88
2023/09/20 05:03:04;;;;;;;1.15;1.05;;;;;;;;;;7398998;19;20364;-88
2023/09/20 05:05:31;;;;;;;0.50;0.47;;;;;;;;;;7399343;19;20368;-88
2023/09/20 05:07:58;;;;;;;0.40;0.40;;;;;;;;;;7399169;19;20359;-86
2023/09/20 05:10:25;;;;;;;0.40;0.40;;;;;;;;;;7398306;19;20332;-87
2023/09/20 05:12:52;;;;;;;0.40;0.40;;;;;;;;;;7395593;19;20439;-87
2023/09/20 05:15:21;;;;;;;0.40;0.40;;;;;;;;;;7396080;19;20753;-87
2023/09/20 05:17:49;;;;;;;0.68;0.65;;;;;;;;;;7400694;19;20477;-88
2023/09/20 05:20:16;;;;;;;0.57;0.57;;;;;;;;;;7400759;19;20328;-87
2023/09/20 05:22:43;;;;;;;0.43;0.43;;;;;;;;;;7399064;19;20339;-88
2023/09/20 05:25:09;;;;;;;0.60;0.60;;;;;;;;;;7400884;19;20359;-87
2023/09/20 05:27:37;;;;;;;0.40;0.40;;;;;;;;;;7401307;19;21055;-88
2023/09/20 05:30:05;;;;;;;0.50;0.50;;;;;;;;;;7390449;19;20367;-87
2023/09/20 05:32:36;;;;;;;0.40;0.40;;;;;;;;;;7395586;19;20366;-88
2023/09/20 05:35:06;;;;;;;0.40;0.40;;;;;;;;;;7414069;19;20402;-87
2023/09/20 05:37:33;;;;;;;0.47;0.47;;;;;;;;;;7417877;19;20348;-88
2023/09/20 05:40:14;;;;;;;1.60;0.70;;;;;;;;;;7420718;19;20343;-88
2023/09/20 05:42:41;;;;;;;0.43;0.43;;;;;;;;;;7418979;19;20386;-88
2023/09/20 05:45:08;;;;;;;0.30;0.30;;;;;;;;;;7419870;19;20348;-88
2023/09/20 05:47:36;;;;;;;0.50;0.50;;;;;;;;;;7423328;19;20357;-88
2023/09/20 05:50:14;;;;;;;0.50;0.50;;;;;;;;;;7420903;19;20377;-88
2023/09/20 05:52:43;;;;;;;0.40;0.40;;;;;;;;;;7422239;19;20349;-88
2023/09/20 05:55:13;;;;;;;0.60;0.60;;;;;;;;;;7407876;19;21033;-88
2023/09/20 05:57:43;;;;;;;0.40;0.40;;;;;;;;;;7407403;19;20803;-88
2023/09/20 06:00:22;;;;;;;0.50;0.50;;;;;;;;;;7422195;19;20364;-88
2023/09/20 06:02:52;;;;;;;0.50;0.50;;;;;;;;;;7414807;19;20797;-88
2023/09/20 06:05:19;;;;;;;0.40;0.40;;;;;;;;;;7399711;19;20361;-87
2023/09/20 06:07:45;;;;;;;0.40;0.40;;;;;;;;;;7400488;19;20698;-87
2023/09/20 06:10:12;;;;;;;0.50;0.50;;;;;;;;;;7400780;19;20340;-88
2023/09/20 06:12:45;;;;;;;0.45;0.45;;;;;;;;;;7399138;19;20316;-88
2023/09/20 06:15:17;;;;;;;0.40;0.40;;;;;;;;;;7400871;19;20327;-88
2023/09/20 06:17:49;;;;;;;0.28;0.28;;;;;;;;;;7400538;19;20384;-88
2023/09/20 06:20:21;;;;;;;0.38;0.38;;;;;;;;;;7399031;19;20335;-87
2023/09/20 06:22:52;;;;;;;0.60;0.60;;;;;;;;;;7398712;19;20358;-88
2023/09/20 06:25:20;;;;;;;0.47;0.47;;;;;;;;;;7399618;19;20352;-88
2023/09/20 06:27:53;;;;;;;0.40;0.40;;;;;;;;;;7401950;19;20346;-88
2023/09/20 06:30:21;;;;;;;0.40;0.40;;;;;;;;;;7396353;19;20713;-88
2023/09/20 06:32:48;;;;;;;0.47;0.47;;;;;;;;;;7391932;19;20356;-88
2023/09/20 06:35:22;;;;;;;0.88;0.88;;;;;;;;;;7398609;19;20340;-87
2023/09/20 06:37:55;;;;;;;0.55;0.55;;;;;;;;;;7402223;19;20777;-87
2023/09/20 06:40:26;;;;;;;0.98;0.88;;;;;;;;;;7401046;19;20681;-88
2023/09/20 06:42:53;;;;;;;0.40;0.40;;;;;;;;;;7396423;19;20918;-88
2023/09/20 06:45:20;;;;;;;0.77;0.75;;;;;;;;;;7393985;19;20386;-88
2023/09/20 06:47:52;;;;;;;0.43;0.43;;;;;;;;;;7392523;19;20360;-88
2023/09/20 06:50:18;;;;;;;0.40;0.40;;;;;;;;;;7394320;19;20460;-88
2023/09/20 06:52:46;;;;;;;0.40;0.40;;;;;;;;;;7392684;19;20367;-88
2023/09/20 06:55:16;;;;;;;0.40;0.40;;;;;;;;;;7395978;19;20356;-88
2023/09/20 06:57:43;;;;;;;0.57;0.57;;;;;;;;;;7398311;19;20432;-88
2023/09/20 07:00:24;;;;;;;0.60;0.60;;;;;;;;;;7401798;19;20697;-88
2023/09/20 07:02:57;;;;;;;0.60;0.60;;;;;;;;;;7401642;19;20371;-88
2023/09/20 11:14:00;;;;;;;0.60;0.60;;;;;;;;;;7393557;19;20345;-92
2023/09/20 14:01:42;;;;;;;0.40;0.40;;;;;;;;;;7389606;19;21077;-91
2023/09/20 17:01:18;;;;;;;;;;;;;;;;;;7392085;19;19917;-88
2023/09/20 17:03:45;;;;;;;;;;;;;;;;;;7396759;19;20350;-88
2023/09/20 17:06:12;;;;;;;;;;;;;;;;;;7391942;19;20366;-88
2023/09/20 17:08:39;;;;;;;;;;;;;;;;;;7392427;19;19926;-88
2023/09/20 17:11:09;;;;;;;;;;;;;;;;;;7392406;19;19928;-85
2023/09/20 17:13:37;;;;;;;;;;;;;;;;;;7393260;19;19919;-86
2023/09/20 17:16:04;;;;;;;;;;;;;;;;;;7392562;19;20274;-85
2023/09/20 17:18:31;;;;;;;;;;;;;;;;;;7392557;19;19929;-86
2023/09/20 17:20:58;;;;;;;;;;;;;;;;;;7392778;19;19926;-87
2023/09/20 17:23:26;;;;;;;;;;;;;;;;;;7391997;19;19923;-87
2023/09/20 17:25:53;;;;;;;;;;;;;;;;;;7393364;19;19915;-86
2023/09/20 17:28:20;;;;;;;;;;;;;;;;;;7391291;19;19918;-87
2023/09/20 17:30:47;;;;;;;;;;;;;;;;;;7391517;19;19919;-87
2023/09/20 17:33:14;;;;;;;;;;;;;;;;;;7390449;19;20357;-86
2023/09/20 17:35:41;;;;;;;;;;;;;;;;;;7391412;19;19911;-86
2023/09/20 17:38:07;;;;;;;;;;;;;;;;;;7384030;19;19927;-86
2023/09/20 17:40:35;;;;;;;;;;;;;;;;;;7390456;19;19978;-86
2023/09/20 17:43:01;;;;;;;;;;;;;;;;;;7396538;19;19938;-86
2023/09/20 17:45:28;;;;;;;;;;;;;;;;;;7397035;19;19918;-86
2023/09/20 17:47:54;;;;;;;;;;;;;;;;;;7397970;19;19922;-86
2023/09/20 17:50:21;;;;;;;;;;;;;;;;;;7393957;19;19947;-86
2023/09/20 17:52:50;;;;;;;;;;;;;;;;;;7393536;19;19948;-86
2023/09/20 17:55:17;;;;;;;;;;;;;;;;;;7398266;19;19919;-87
2023/09/20 17:57:45;;;;;;;;;;;;;;;;;;7398142;19;19923;-87
2023/09/20 18:00:34;;;;;;;;;;;;;;;;;;7396813;19;19975;-87
2023/09/20 18:03:55;;;;;;;;;;;;;;;;;;7396685;19;19910;-88
2023/09/20 18:07:18;;;;;;;;;;;;;;;;;;7397866;19;19939;-87
2023/09/20 18:10:26;;;;;;;;;;;;;;;;;;7394747;19;19946;-87
2023/09/20 18:20:19;;;;;;;;;;;;;;;;;;;;;
2023/09/20 18:29:41;;;;;;;;;;;;;;;;;;7397382;19;19921;-89
2023/09/20 18:32:07;;;;;;;;;;;;;;;;;;7393805;19;20016;-89
2023/09/20 18:34:35;;;;;;;;;;;;;;;;;;7393488;19;20434;-89
2023/09/20 18:37:04;;;;;;;;;;;;;;;;;;7397250;19;19919;-89
2023/09/20 18:39:32;;;;;;;;;;;;;;;;;;7397021;19;19982;-88
2023/09/20 18:42:00;;;;;;;;;;;;;;;;;;7396664;19;20685;-90
2023/09/20 18:44:27;;;;;;;;;;;;;;;;;;7396930;19;19926;-89
2023/09/20 18:47:47;;;;;;;;;;;;;;;;;;7396267;19;19951;-90
2023/09/20 18:50:13;;;;;;;;;;;;;;;;;;7399086;19;19935;-89
2023/09/20 18:52:40;;;;;;;;;;;;;;;;;;7395057;19;19919;-88
2023/09/20 18:55:07;;;;;;;;;;;;;;;;;;7395587;19;19922;-89
2023/09/20 18:57:35;;;;;;;;;;;;;;;;;;7396310;19;19926;-89
2023/09/20 19:00:02;;;;;;;;;;;;;;;;;;7394763;19;19914;-90
2023/09/20 19:02:28;;;;;;;;;;;;;;;;;;7391011;19;19923;-89
2023/09/20 19:04:55;;;;;;;;;;;;;;;;;;7389948;19;19987;-90
2023/09/20 19:07:23;;;;;;;;;;;;;;;;;;7393714;19;19930;-90
2023/09/20 19:09:54;;;;;;;;;;;;;;;;;;7389795;19;19986;-89
2023/09/20 19:12:24;;;;;;;;;;;;;;;;;;7391455;19;19943;-88
2023/09/20 19:14:52;;;;;;;;;;;;;;;;;;7393757;19;19923;-89
2023/09/20 19:17:22;;;;;;;;;;;;;;;;;;7395445;19;19915;-89
2023/09/20 19:19:49;;;;;;;;;;;;;;;;;;7395095;19;20358;-90
2023/09/20 19:22:15;;;;;;;;;;;;;;;;;;7397818;19;19932;-89
2023/09/20 19:24:44;;;;;;;;;;;;;;;;;;7395550;19;19939;-89
2023/09/20 19:27:10;;;;;;;;;;;;;;;;;;7396236;19;19923;-89
2023/09/20 19:29:37;;;;;;;;;;;;;;;;;;7398153;19;19919;-89
2023/09/20 19:32:04;;;;;;;;;;;;;;;;;;7396082;19;19930;-89
2023/09/20 19:34:33;;;;;;;;;;;;;;;;;;7394799;19;19919;-89
2023/09/20 19:37:00;;;;;;;;;;;;;;;;;;7394790;19;19918;-89
2023/09/20 19:39:28;;;;;;;;;;;;;;;;;;7398156;19;19918;-89
2023/09/20 19:42:00;;;;;;;;;;;;;;;;;;7392154;19;20539;-90
2023/09/20 19:44:27;;;;;;;;;;;;;;;;;;7398347;19;19919;-89
2023/09/20 19:46:57;;;;;;;;;;;;;;;;;;7398190;19;19918;-89
2023/09/20 19:49:48;;;;;;;;;;;;;;;;;;7398041;19;19931;-89
2023/09/20 19:59:31;;;;;;;;;;;;;;;;;;7393727;19;19941;-89
2023/09/20 20:01:58;;;;;;;;;;;;;;;;;;7392085;19;19952;-91
2023/09/20 20:04:24;;;;;;;;;;;;;;;;;;7387803;19;19922;-92
2023/09/20 20:06:52;;;;;;;;;;;;;;;;;;7392240;19;20029;-92
2023/09/20 20:09:19;;;;;;;;;;;;;;;;;;7387947;19;20272;-92
2023/09/20 20:11:53;;;;;;;;;;;;;;;;;;7385962;19;20048;-92
2023/09/20 20:14:21;;;;;;;;;;;;;;;;;;7380589;19;20566;-92
2023/09/20 20:16:48;;;;;;;;;;;;;;;;;;7385184;19;19927;-91
2023/09/20 20:19:15;;;;;;;;;;;;;;;;;;7385426;19;19915;-92
2023/09/20 20:21:42;;;;;;;;;;;;;;;;;;7384387;19;20167;-92
2023/09/20 20:24:09;;;;;;;;;;;;;;;;;;7385343;19;19935;-93
2023/09/20 20:26:36;;;;;;;;;;;;;;;;;;7389654;19;19986;-92
2023/09/20 20:29:09;;;;;;;;;;;;;;;;;;7384854;19;19927;-91
2023/09/20 20:31:52;;;;;;;;;;;;;;;;;;7396349;19;19918;-92
2023/09/20 20:34:19;;;;;;;;;;;;;;;;;;7395104;19;20229;-93
2023/09/20 20:36:54;;;;;;;;;;;;;;;;;;7390644;19;19925;-93
2023/09/20 20:39:21;;;;;;;;;;;;;;;;;;7390939;19;20319;-93
2023/09/20 20:41:53;;;;;;;;;;;;;;;;;;7389220;19;19915;-93
2023/09/20 20:44:20;;;;;;;;;;;;;;;;;;7387139;19;19922;-93
2023/09/20 20:49:42;;;;;;;;;;;;;;;;;;7407254;19;19926;-93
2023/09/20 20:52:30;;;;;;;;;;;;;;;;;;7399812;19;19938;-93
2023/09/20 20:55:33;;;;;;;;;;;;;;;;;;7395005;19;19956;-94
2023/09/20 20:58:13;;;;;;;;;;;;;;;;;;7384534;19;20269;-94
2023/09/20 21:00:49;;;;;;;;;;;;;;;;;;7387988;19;19994;-94
2023/09/20 21:03:16;;;;;;;;;;;;;;;;;;7388855;19;19947;-93
2023/09/20 21:05:43;;;;;;;;;;;;;;;;;;7398991;19;19922;-93
2023/09/20 21:08:12;;;;;;;;;;;;;;;;;;7398475;19;19923;-92
2023/09/20 21:10:40;;;;;;;;;;;;;;;;;;7395263;19;19934;-93
2023/09/20 21:13:14;;;;;;;;;;;;;;;;;;7389366;19;20291;-93
2023/09/20 21:15:41;;;;;;;;;;;;;;;;;;7393795;19;20249;-93
2023/09/20 21:18:09;;;;;;;;;;;;;;;;;;7396861;19;19915;-92
2023/09/20 21:20:37;;;;;;;;;;;;;;;;;;7398323;19;19942;-93
2023/09/20 21:23:05;;;;;;;;;;;;;;;;;;7411163;19;19930;-92
2023/09/20 21:25:34;;;;;;;;;;;;;;;;;;7415982;19;19944;-90
2023/09/20 21:28:00;;;;;;;;;;;;;;;;;;7409562;19;19922;-90
2023/09/20 21:30:28;;;;;;;;;;;;;;;;;;7406237;19;19927;-92
2023/09/20 21:32:58;;;;;;;;;;;;;;;;;;7390886;19;19923;-91
2023/09/20 21:35:25;;;;;;;;;;;;;;;;;;7389441;19;20270;-91
2023/09/20 21:37:54;;;;;;;;;;;;;;;;;;7389368;19;20342;-91
2023/09/20 21:40:21;;;;;;;;;;;;;;;;;;7389061;19;20370;-91
2023/09/20 21:42:51;;;;;;;;;;;;;;;;;;7392367;19;19931;-91
2023/09/20 21:45:18;;;;;;;;;;;;;;;;;;7390548;19;20374;-90
2023/09/20 21:47:46;;;;;;;;;;;;;;;;;;7394875;19;19932;-90
2023/09/20 21:50:13;;;;;;;;;;;;;;;;;;7411269;19;19922;-90
2023/09/20 21:52:40;;;;;;;;;;;;;;;;;;7408636;19;19918;-90
2023/09/20 21:55:08;;;;;;;;;;;;;;;;;;7400214;19;20366;-89
2023/09/20 21:57:36;;;;;;;;;;;;;;;;;;7397494;19;20287;-88
2023/09/20 22:00:23;;;;;;;;;;;;;;;;;;7396748;19;19982;-88
2023/09/20 22:02:51;;;;;;;;;;;;;;;;;;7393461;19;19986;-88
2023/09/20 22:05:21;;;;;;;;;;;;;;;;;;7394905;19;19915;-88
2023/09/20 22:07:53;;;;;;;;;;;;;;;;;;7394911;19;19922;-89
2023/09/20 22:10:25;;;;;;;;;;;;;;;;;;7396805;19;19919;-88
2023/09/20 22:12:55;;;;;;;;;;;;;;;;;;7395675;19;19915;-88
2023/09/20 22:15:26;;;;;;;;;;;;;;;;;;7397023;19;19919;-88
2023/09/20 22:17:55;;;;;;;;;;;;;;;;;;7396937;19;19982;-88
2023/09/20 22:20:25;;;;;;;;;;;;;;;;;;7396048;19;19926;-88
2023/09/20 22:22:53;;;;;;;;;;;;;;;;;;7393727;19;19986;-88
2023/09/20 22:25:20;;;;;;;;;;;;;;;;;;7390065;19;20269;-90
2023/09/20 22:27:48;;;;;;;0.40;0.40;;;;;;;;;;7392801;19;20037;-91
2023/09/20 22:30:14;;;;;;;0.30;0.30;;;;;;;;;;7395139;19;20148;-91
2023/09/20 22:32:43;;;;;;;1.10;1.10;;;;;;;;;;7396771;19;20145;-91
2023/09/20 22:35:14;;;;;;;0.80;0.73;;;;;;;;;;7396266;19;20572;-91
2023/09/20 22:37:42;;;;;;;0.85;0.55;;;;;;;;;;7397962;19;20121;-91
2023/09/20 22:40:22;;;;;;;0.50;0.50;;;;;;;;;;7397646;19;20137;-91
2023/09/20 22:42:51;;;;;;;0.40;0.40;;;;;;;;;;7397753;19;20147;-90
2023/09/20 22:47:49;;;;;;;0.30;0.30;;;;;;;;;;7390735;19;20141;-91
2023/09/20 22:50:17;;;;;;;0.30;0.30;;;;;;;;;;7390324;19;20141;-91
2023/09/20 22:52:48;;;;;;;0.30;0.30;;;;;;;;;;7390282;19;20217;-92
2023/09/20 22:55:15;;;;;;;0.30;0.30;;;;;;;;;;7390230;19;20152;-91
2023/09/20 22:57:42;;;;;;;0.20;0.20;;;;;;;;;;7388472;19;20150;-92
2023/09/20 23:00:11;;;;;;;0.20;0.20;;;;;;;;;;7388272;19;20599;-92
2023/09/20 23:02:39;;;;;;;0.30;0.30;;;;;;;;;;7390259;19;20146;-92
2023/09/20 23:05:12;;;;;;;0.30;0.30;;;;;;;;;;7391677;19;20141;-91
2023/09/20 23:07:48;;;;;;;0.25;0.25;;;;;;;;;;7393005;19;20121;-91
2023/09/20 23:10:19;;;;;;;0.30;0.30;;;;;;;;;;7393133;19;20157;-92
2023/09/20 23:12:47;;;;;;;0.50;0.50;;;;;;;;;;7394483;19;20537;-92
2023/09/20 23:15:15;;;;;;;0.30;0.30;;;;;;;;;;7392850;19;20140;-92
2023/09/20 23:17:44;;;;;;;0.30;0.30;;;;;;;;;;7396197;19;20137;-92
2023/09/20 23:20:11;;;;;;;0.68;0.68;;;;;;;;;;7411123;19;20154;-88
2023/09/20 23:22:40;;;;;;;0.30;0.30;;;;;;;;;;7428711;19;20129;-89
2023/09/20 23:25:10;;;;;;;0.77;0.77;;;;;;;;;;7426951;19;20360;-89
2023/09/20 23:27:44;;;;;;;0.60;0.60;;;;;;;;;;7426210;19;20349;-90
2023/09/20 23:30:11;;;;;;;0.50;0.50;;;;;;;;;;7426245;19;20397;-91
2023/09/20 23:32:44;;;;;;;0.60;0.60;;;;;;;;;;7426607;19;20372;-90
2023/09/20 23:35:12;;;;;;;0.53;0.53;;;;;;;;;;7407553;19;20364;-92
2023/09/20 23:37:39;;;;;;;0.80;0.60;;;;;;;;;;7392621;19;20349;-92
2023/09/20 23:40:11;;;;;;;0.35;0.35;;;;;;;;;;7391885;19;20349;-91
2023/09/20 23:42:42;;;;;;;0.40;0.40;;;;;;;;;;7392958;19;20356;-91
2023/09/20 23:45:09;;;;;;;0.40;0.40;;;;;;;;;;7391610;19;20469;-91
2023/09/20 23:47:38;;;;;;;0.30;0.30;;;;;;;;;;7389906;19;20340;-91
2023/09/20 23:50:07;;;;;;;0.35;0.35;;;;;;;;;;7391268;19;20351;-91
2023/09/20 23:52:35;;;;;;;0.55;0.55;;;;;;;;;;7389718;19;20407;-92
2023/09/20 23:55:11;;;;;;;0.70;0.70;;;;;;;;;;7391464;19;20370;-92
2023/09/20 23:57:40;;;;;;;0.53;0.53;;;;;;;;;;7391980;19;20365;-92
